Time;durP1;ratioP1;P1;durP2;ratioP2;P2;SDS_P1;SDS_P2;PMS_P1;PMS_P2;Temp;Humidity;BMP_temperature;BMP_pressure;BME280_temperature;BME280_humidity;BME280_pressure;Samples;Min_cycle;Max_cycle;Signal;HPM_P1;HPM_P2
2023/10/08 00:01:51;;;;;;;;;;;;;;;;;;5071873;28;824;-70
2023/10/08 00:04:18;;;;;;;;;;;;;;;;;;5072021;28;863;-71
2023/10/08 00:06:45;;;;;;;;;;;;;;;;;;5071776;28;901;-71
2023/10/08 00:09:11;;;;;;;;;;;;;;;;;;5071648;28;1914;-71
2023/10/08 00:11:36;;;;;;;;;;;;;;;;;;5071331;28;832;-71
2023/10/08 00:14:05;;;;;;;;;;;;;;;;;;5071389;28;864;-71
2023/10/08 00:16:33;;;;;;;;;;;;;;;;;;5071569;28;909;-71
2023/10/08 00:19:03;;;;;;;;;;;;;;;;;;5070702;28;1256;-71
2023/10/08 00:21:31;;;;;;;;;;;;;;;;;;5069730;28;1229;-71
2023/10/08 00:23:59;;;;;;;;;;;;;;;;;;5071444;28;914;-70
2023/10/08 00:26:29;;;;;;;;;;;;;;;;;;5071209;28;821;-71
2023/10/08 00:28:55;;;;;;;;;;;;;;;;;;5070932;28;1914;-71
2023/10/08 00:31:24;;;;;;;;;;;;;;;;;;5071236;28;817;-71
2023/10/08 00:33:49;;;;;;;;;;;;;;;;;;5069543;28;1209;-71
2023/10/08 00:36:18;;;;;;;;;;;;;;;;;;5071549;28;907;-71
2023/10/08 00:38:44;;;;;;;;;;;;;;;;;;5069572;28;864;-71
2023/10/08 00:41:14;;;;;;;;;;;;;;;;;;5071022;28;876;-70
2023/10/08 00:43:39;;;;;;;;;;;;;;;;;;5069154;28;1297;-71
2023/10/08 00:46:10;;;;;;;;;;;;;;;;;;5071020;28;915;-71
2023/10/08 00:48:36;;;;;;;;;;;;;;;;;;5070448;28;1949;-70
2023/10/08 00:53:46;;;;;;;;;;;;;;;;;;5070892;28;707;-70
2023/10/08 00:56:13;;;;;;;;;;;;;;;;;;5070718;28;868;-71
2023/10/08 00:58:40;;;;;;;;;;;;;;;;;;5070374;28;860;-71
2023/10/08 01:01:10;;;;;;;;;;;;;;;;;;5070941;28;829;-71
2023/10/08 01:03:36;;;;;;;;;;;;;;;;;;5069216;28;845;-70
2023/10/08 01:06:03;;;;;;;;;;;;;;;;;;5071220;28;991;-70
2023/10/08 01:08:40;;;;;;;;;;;;;;;;;;5069595;28;1953;-70
2023/10/08 01:11:31;;;;;;;;;;;;;;;;;;5070864;28;852;-71
2023/10/08 01:13:58;;;;;;;;;;;;;;;;;;5069182;28;885;-70
2023/10/08 01:16:26;;;;;;;;;;;;;;;;;;5069701;28;841;-71
2023/10/08 01:18:54;;;;;;;;;;;;;;;;;;5070905;28;888;-71
2023/10/08 01:21:33;;;;;;;;;;;;;;;;;;5070266;28;928;-72
2023/10/08 01:24:00;;;;;;;;;;;;;;;;;;5070748;28;900;-71
2023/10/08 01:26:29;;;;;;;;;;;;;;;;;;5072859;28;1004;-72
2023/10/08 01:28:54;;;;;;;;;;;;;;;;;;5075231;28;1970;-72
2023/10/08 01:31:20;;;;;;;;;;;;;;;;;;5074913;28;837;-71
2023/10/08 01:33:50;;;;;;;;;;;;;;;;;;5074776;28;1403;-72
2023/10/08 01:36:15;;;;;;;;;;;;;;;;;;5071964;28;1183;-72
2023/10/08 01:38:48;;;;;;;;;;;;;;;;;;5069377;28;1203;-72
2023/10/08 01:41:19;;;;;;;;;;;;;;;;;;5058615;28;1222;-71
2023/10/08 01:43:49;;;;;;;;;;;;;;;;;;5071142;28;1132;-71
2023/10/08 01:46:15;;;;;;;;;;;;;;;;;;5074271;28;869;-71
2023/10/08 01:48:44;;;;;;;;;;;;;;;;;;5073092;28;1902;-71
2023/10/08 01:51:11;;;;;;;;;;;;;;;;;;5073887;28;899;-71
2023/10/08 01:53:39;;;;;;;;;;;;;;;;;;5073580;28;876;-72
2023/10/08 01:56:05;;;;;;;;;;;;;;;;;;5073784;28;841;-71
2023/10/08 01:58:30;;;;;;;;;;;;;;;;;;5074229;28;777;-72
2023/10/08 02:00:59;;;;;;;;;;;;;;;;;;5073961;28;1002;-72
2023/10/08 02:03:25;;;;;;;;;;;;;;;;;;5072625;28;1200;-72
2023/10/08 02:05:53;;;;;;;;;;;;;;;;;;5073312;28;952;-71
2023/10/08 02:08:18;;;;;;;;;;;;;;;;;;5074035;28;1951;-72
2023/10/08 02:10:46;;;;;;;;;;;;;;;;;;5072848;28;995;-72
2023/10/08 02:13:13;;;;;;;;;;;;;;;;;;5073408;28;833;-72
2023/10/08 02:15:45;;;;;;;;;;;;;;;;;;5072878;28;912;-72
2023/10/08 02:18:11;;;;;;;;;;;;;;;;;;5073335;28;888;-72
2023/10/08 02:20:36;;;;;;;;;;;;;;;;;;5072784;28;911;-72
2023/10/08 02:23:01;;;;;;;;;;;;;;;;;;5073265;28;871;-72
2023/10/08 02:25:27;;;;;;;;;;;;;;;;;;5073483;28;860;-71
2023/10/08 02:27:52;;;;;;;;;;;;;;;;;;5072693;28;1141;-71
2023/10/08 02:30:18;;;;;;;;;;;;;;;;;;5071646;28;1901;-72
2023/10/08 02:32:43;;;;;;;;;;;;;;;;;;5072520;28;782;-72
2023/10/08 02:35:11;;;;;;;;;;;;;;;;;;5073319;28;817;-72
2023/10/08 02:37:39;;;;;;;;;;;;;;;;;;5071456;28;916;-72
2023/10/08 02:40:13;;;;;;;;;;;;;;;;;;5070868;28;1262;-71
2023/10/08 02:42:38;;;;;;;;;;;;;;;;;;5071847;28;888;-72
2023/10/08 02:45:03;;;;;;;;;;;;;;;;;;5073202;28;923;-72
2023/10/08 02:47:29;;;;;;;;;;;;;;;;;;5072555;28;975;-72
2023/10/08 02:49:54;;;;;;;;;;;;;;;;;;5072242;28;1894;-71
2023/10/08 02:52:20;;;;;;;;;;;;;;;;;;5072841;28;880;-71
2023/10/08 02:54:45;;;;;;;;;;;;;;;;;;5071362;28;1404;-72
2023/10/08 02:57:14;;;;;;;;;;;;;;;;;;5073002;28;844;-72
2023/10/08 02:59:40;;;;;;;;;;;;;;;;;;5071351;28;873;-72
2023/10/08 03:02:13;;;;;;;;;;;;;;;;;;5072905;28;899;-72
2023/10/08 03:04:39;;;;;;;;;;;;;;;;;;5072324;28;911;-71
2023/10/08 03:07:11;;;;;;;;;;;;;;;;;;5072621;28;901;-72
2023/10/08 03:09:41;;;;;;;;;;;;;;;;;;5071795;28;1960;-72
2023/10/08 03:12:09;;;;;;;;;;;;;;;;;;5073657;28;926;-72
2023/10/08 03:14:41;;;;;;;;;;;;;;;;;;5072633;28;902;-72
2023/10/08 03:17:07;;;;;;;;;;;;;;;;;;5072037;28;872;-72
2023/10/08 03:19:32;;;;;;;;;;;;;;;;;;5073045;28;869;-71
2023/10/08 03:21:58;;;;;;;;;;;;;;;;;;5073453;28;1003;-72
2023/10/08 03:24:29;;;;;;;;;;;;;;;;;;5073324;28;902;-72
2023/10/08 03:27:05;;;;;;;;;;;;;;;;;;5072570;28;920;-71
2023/10/08 03:29:30;;;;;;;;;;;;;;;;;;5072049;28;1960;-72
2023/10/08 03:31:56;;;;;;;;;;;;;;;;;;5070697;28;971;-72
2023/10/08 03:34:27;;;;;;;;;;;;;;;;;;5071689;28;927;-72
2023/10/08 03:36:59;;;;;;;;;;;;;;;;;;5070136;28;1065;-72
2023/10/08 03:39:41;;;;;;;;;;;;;;;;;;5072121;28;825;-72
2023/10/08 03:42:08;;;;;;;;;;;;;;;;;;5070576;28;943;-72
2023/10/08 03:44:37;;;;;;;;;;;;;;;;;;5071345;28;881;-72
2023/10/08 03:47:10;;;;;;;;;;;;;;;;;;5072097;28;836;-71
2023/10/08 03:49:37;;;;;;;;;;;;;;;;;;5070533;28;1917;-71
2023/10/08 03:52:06;;;;;;;;;;;;;;;;;;5072109;28;899;-72
2023/10/08 03:54:35;;;;;;;;;;;;;;;;;;5071334;28;883;-72
2023/10/08 03:57:01;;;;;;;;;;;;;;;;;;5071497;28;868;-71
2023/10/08 04:01:55;;;;;;;;;;;;;;;;;;5071474;28;864;-71
2023/10/08 04:04:23;;;;;;;;;;;;;;;;;;5071348;28;929;-71
2023/10/08 04:06:51;;;;;;;;;;;;;;;;;;5069831;28;1285;-71
2023/10/08 04:09:25;;;;;;;;;;;;;;;;;;5071079;28;1906;-71
2023/10/08 04:11:51;;;;;;;;;;;;;;;;;;5071032;28;880;-71
2023/10/08 04:14:24;;;;;;;;;;;;;;;;;;5071610;28;852;-71
2023/10/08 04:16:52;;;;;;;;;;;;;;;;;;5071233;28;865;-71
2023/10/08 04:19:18;;;;;;;;;;;;;;;;;;5071706;28;927;-72
2023/10/08 04:21:44;;;;;;;;;;;;;;;;;;5071218;28;987;-72
2023/10/08 04:24:11;;;;;;;;;;;;;;;;;;5071280;28;888;-71
2023/10/08 04:26:39;;;;;;;;;;;;;;;;;;5071093;28;900;-71
2023/10/08 04:29:08;;;;;;;;;;;;;;;;;;5071668;28;1976;-71
2023/10/08 04:31:43;;;;;;;;;;;;;;;;;;5069972;28;1271;-71
2023/10/08 04:34:22;;;;;;;;;;;;;;;;;;5054854;28;1307;-71
2023/10/08 04:36:54;;;;;;;;;;;;;;;;;;5071005;28;927;-71
2023/10/08 04:39:22;;;;;;;;;;;;;;;;;;5070879;28;859;-71
2023/10/08 04:41:52;;;;;;;;;;;;;;;;;;5070887;28;883;-72
2023/10/08 04:44:17;;;;;;;;;;;;;;;;;;5071442;28;912;-70
2023/10/08 04:49:23;;;;;;;;;;;;;;;;;;5071591;28;1902;-71
2023/10/08 04:51:48;;;;;;;;;;;;;;;;;;5070462;28;869;-72
2023/10/08 04:54:18;;;;;;;;;;;;;;;;;;5071947;28;809;-72
2023/10/08 04:56:43;;;;;;;;;;;;;;;;;;5071938;28;868;-72
2023/10/08 04:59:11;;;;;;;;;;;;;;;;;;5071632;28;892;-72
2023/10/08 05:02:02;;;;;;;;;;;;;;;;;;5070254;28;1172;-71
2023/10/08 05:04:32;;;;;;;;;;;;;;;;;;5073763;28;908;-72
2023/10/08 05:07:03;;;;;;;;;;;;;;;;;;5074705;28;1453;-71
2023/10/08 05:17:56;;;;;;;;;;;;;;;;;;5074231;28;805;-71
2023/10/08 05:20:58;;;;;;;;;;;;;;;;;;5074506;28;821;-70
2023/10/08 05:26:31;;;;;;;;;;;;;;;;;;5074257;28;796;-71
2023/10/08 05:34:18;;;;;;;;;;;;;;;;;;5074719;28;716;-70
2023/10/08 05:39:40;;;;;;;;;;;;;;;;;;5073046;28;760;-70
2023/10/08 05:42:20;;;;;;;;;;;;;;;;;;5074406;28;856;-70
2023/10/08 05:44:46;;;;;;;;;;;;;;;;;;5073765;28;931;-70
2023/10/08 05:53:01;;;;;;;;;;;;;;;;;;5073927;28;790;-71
2023/10/08 05:55:47;;;;;;;;;;;;;;;;;;5074446;28;935;-70
2023/10/08 06:03:37;;;;;;;;;;;;;;;;;;5074173;28;730;-71
2023/10/08 06:06:22;;;;;;;;;;;;;;;;;;5073717;28;1418;-70
2023/10/08 06:11:41;;;;;;;;;;;;;;;;;;5051880;28;1112;-71
2023/10/08 06:14:36;;;;;;;;;;;;;;;;;;5074079;28;883;-71
2023/10/08 06:17:23;;;;;;;;;;;;;;;;;;5072566;28;927;-71
2023/10/08 06:19:49;;;;;;;;;;;;;;;;;;5072976;28;1432;-71
2023/10/08 06:22:14;;;;;;;;;;;;;;;;;;5072226;28;1274;-71
2023/10/08 06:24:40;;;;;;;;;;;;;;;;;;5072903;28;1050;-71
2023/10/08 06:27:06;;;;;;;;;;;;;;;;;;5073434;28;872;-71
2023/10/08 06:29:31;;;;;;;;;;;;;;;;;;5073092;28;1957;-72
2023/10/08 06:32:01;;;;;;;;;;;;;;;;;;5073101;28;895;-72
2023/10/08 06:34:27;;;;;;;;;;;;;;;;;;5073003;28;1330;-72
2023/10/08 06:36:53;;;;;;;;;;;;;;;;;;5072793;28;876;-72
2023/10/08 06:39:25;;;;;;;;;;;;;;;;;;5074289;28;841;-72
2023/10/08 06:41:52;;;;;;;;;;;;;;;;;;5072844;28;876;-71
2023/10/08 06:44:17;;;;;;;;;;;;;;;;;;5073994;28;900;-72
2023/10/08 06:46:43;;;;;;;;;;;;;;;;;;5073309;28;861;-69
2023/10/08 06:49:11;;;;;;;;;;;;;;;;;;5074063;28;1918;-70
2023/10/08 06:51:37;;;;;;;;;;;;;;;;;;5073597;28;952;-70
2023/10/08 06:54:03;;;;;;;;;;;;;;;;;;5072776;28;1310;-70
2023/10/08 06:56:28;;;;;;;;;;;;;;;;;;5074018;28;861;-70
2023/10/08 06:58:54;;;;;;;;;;;;;;;;;;5073017;28;947;-70
2023/10/08 07:01:24;;;;;;;;;;;;;;;;;;5073394;28;833;-70
2023/10/08 07:03:51;;;;;;;;;;;;;;;;;;5072511;28;932;-70
2023/10/08 07:06:17;;;;;;;;;;;;;;;;;;5072763;28;1004;-71
2023/10/08 07:08:46;;;;;;;;;;;;;;;;;;5072039;28;1894;-70
2023/10/08 07:11:12;;;;;;;;;;;;;;;;;;5073046;28;852;-70
2023/10/08 07:13:39;;;;;;;;;;;;;;;;;;5071086;28;1239;-70
2023/10/08 07:16:06;;;;;;;;;;;;;;;;;;5072912;28;844;-70
2023/10/08 07:18:33;;;;;;;;;;;;;;;;;;5072803;28;841;-70
2023/10/08 07:21:11;;;;;;;;;;;;;;;;;;5072230;28;837;-70
2023/10/08 07:23:39;;;;;;;;;;;;;;;;;;5071506;28;977;-70
2023/10/08 07:26:17;;;;;;;;;;;;;;;;;;5072546;28;849;-70
2023/10/08 07:28:43;;;;;;;;;;;;;;;;;;5070298;28;1902;-70
2023/10/08 07:31:21;;;;;;;;;;;;;;;;;;5072048;28;875;-70
2023/10/08 07:33:47;;;;;;;;;;;;;;;;;;5071662;28;882;-70
2023/10/08 07:36:14;;;;;;;;;;;;;;;;;;5072983;28;831;-70
2023/10/08 07:38:42;;;;;;;;;;;;;;;;;;5071970;28;872;-70
2023/10/08 07:41:19;;;;;;;;;;;;;;;;;;5072874;28;971;-69
2023/10/08 07:43:55;;;;;;;;;;;;;;;;;;5072089;28;860;-69
2023/10/08 07:46:26;;;;;;;;;;;;;;;;;;5072775;28;841;-69
2023/10/08 07:48:51;;;;;;;;;;;;;;;;;;5071713;28;1906;-69
2023/10/08 07:51:21;;;;;;;;;;;;;;;;;;5073179;28;975;-69
2023/10/08 07:53:47;;;;;;;;;;;;;;;;;;5072131;28;1236;-69
2023/10/08 07:56:12;;;;;;;;;;;;;;;;;;5071843;28;904;-69
2023/10/08 07:58:37;;;;;;;;;;;;;;;;;;5071089;28;1089;-70
2023/10/08 08:01:06;;;;;;;;;;;;;;;;;;5070774;28;1010;-69
2023/10/08 08:03:31;;;;;;;;;;;;;;;;;;5071854;28;911;-69
2023/10/08 08:05:58;;;;;;;;;;;;;;;;;;5070329;28;1836;-69
2023/10/08 08:08:27;;;;;;;;;;;;;;;;;;5072259;28;912;-70
2023/10/08 08:10:57;;;;;;;;;;;;;;;;;;5071554;28;1019;-70
2023/10/08 08:13:22;;;;;;;;;;;;;;;;;;5071740;28;836;-69
2023/10/08 08:15:50;;;;;;;;;;;;;;;;;;5071391;28;928;-71
2023/10/08 08:18:22;;;;;;;;;;;;;;;;;;5070947;28;916;-69
2023/10/08 08:20:47;;;;;;;;;;;;;;;;;;5072042;28;911;-69
2023/10/08 08:23:13;;;;;;;;;;;;;;;;;;5072689;28;875;-70
2023/10/08 08:25:45;;;;;;;;;;;;;;;;;;5071933;28;845;-69
2023/10/08 08:28:16;;;;;;;;;;;;;;;;;;5072523;28;903;-69
2023/10/08 08:30:46;;;;;;;;;;;;;;;;;;5071802;28;1967;-69
2023/10/08 08:33:11;;;;;;;;;;;;;;;;;;5072807;28;821;-69
2023/10/08 08:35:36;;;;;;;;;;;;;;;;;;5071540;28;825;-69
2023/10/08 08:38:05;;;;;;;;;;;;;;;;;;5071463;28;907;-69
2023/10/08 08:40:32;;;;;;;;;;;;;;;;;;5071894;28;794;-69
2023/10/08 08:42:58;;;;;;;;;;;;;;;;;;5070077;28;920;-69
2023/10/08 08:45:24;;;;;;;;;;;;;;;;;;5070517;28;1451;-70
2023/10/08 08:47:50;;;;;;;;;;;;;;;;;;5070908;28;880;-70
2023/10/08 08:50:17;;;;;;;;;;;;;;;;;;5071469;28;1959;-69
2023/10/08 08:52:43;;;;;;;;;;;;;;;;;;5071285;28;868;-69
2023/10/08 08:55:16;;;;;;;;;;;;;;;;;;5071258;28;869;-69
2023/10/08 08:57:46;;;;;;;;;;;;;;;;;;5070616;28;936;-69
2023/10/08 09:00:12;;;;;;;;;;;;;;;;;;5071442;28;861;-69
2023/10/08 09:02:37;;;;;;;;;;;;;;;;;;5071179;28;900;-69
2023/10/08 09:05:49;;;;;;;;;;;;;;;;;;5069551;28;936;-69
2023/10/08 09:08:06;;;;;;;;;;;;;;;;;;5064603;28;1164;-70
2023/10/08 09:10:38;;;;;;;;;;;;;;;;;;5070094;28;1918;-69
2023/10/08 09:13:11;;;;;;;;;;;;;;;;;;5070818;28;892;-69
2023/10/08 09:15:36;;;;;;;;;;;;;;;;;;5071049;28;864;-69
2023/10/08 09:18:05;;;;;;;;;;;;;;;;;;5070612;28;821;-70
2023/10/08 09:20:31;;;;;;;;;;;;;;;;;;5071371;28;852;-69
2023/10/08 09:23:17;;;;;;;;;;;;;;;;;;5071228;28;872;-69
2023/10/08 09:25:43;;;;;;;;;;;;;;;;;;5070842;28;849;-69
2023/10/08 09:28:09;;;;;;;;;;;;;;;;;;5071187;28;841;-69
2023/10/08 09:30:38;;;;;;;;;;;;;;;;;;5071540;28;1957;-69
2023/10/08 09:33:05;;;;;;;;;;;;;;;;;;5069909;28;931;-69
2023/10/08 09:35:31;;;;;;;;;;;;;;;;;;5071588;28;903;-69
2023/10/08 09:37:57;;;;;;;;;;;;;;;;;;5070982;28;986;-70
2023/10/08 09:40:24;;;;;;;;;;;;;;;;;;5071834;28;929;-69
2023/10/08 09:42:50;;;;;;;;;;;;;;;;;;5070506;28;913;-68
2023/10/08 09:45:15;;;;;;;;;;;;;;;;;;5071379;28;912;-69
2023/10/08 09:47:43;;;;;;;;;;;;;;;;;;5072185;28;883;-68
2023/10/08 09:50:11;;;;;;;;;;;;;;;;;;5074048;28;1969;-69
2023/10/08 09:52:44;;;;;;;;;;;;;;;;;;5074315;28;899;-68
2023/10/08 09:55:12;;;;;;;;;;;;;;;;;;5075201;28;851;-68
2023/10/08 09:57:38;;;;;;;;;;;;;;;;;;5074833;28;1014;-68
2023/10/08 10:00:14;;;;;;;;;;;;;;;;;;5075569;28;825;-68
2023/10/08 10:02:40;;;;;;;;;;;;;;;;;;5075008;28;947;-69
2023/10/08 10:05:06;;;;;;;;;;;;;;;;;;5075046;28;1050;-69
2023/10/08 10:07:31;;;;;;;;;;;;;;;;;;5074896;28;946;-69
2023/10/08 10:09:57;;;;;;;;;;;;;;;;;;5072452;28;1947;-69
2023/10/08 10:12:26;;;;;;;;;;;;;;;;;;5074862;28;844;-69
2023/10/08 10:14:55;;;;;;;;;;;;;;;;;;5074114;28;906;-69
2023/10/08 10:17:22;;;;;;;;;;;;;;;;;;5074337;28;852;-69
2023/10/08 10:19:59;;;;;;;;;;;;;;;;;;5073480;28;963;-69
2023/10/08 10:22:34;;;;;;;;;;;;;;;;;;5073660;28;986;-69
2023/10/08 10:25:03;;;;;;;;;;;;;;;;;;5073462;28;966;-69
2023/10/08 10:27:29;;;;;;;;;;;;;;;;;;5073855;28;887;-69
2023/10/08 10:30:03;;;;;;;;;;;;;;;;;;5073553;28;1882;-69
2023/10/08 10:32:28;;;;;;;;;;;;;;;;;;5074094;28;918;-70
2023/10/08 10:34:54;;;;;;;;;;;;;;;;;;5073243;28;991;-70
2023/10/08 10:37:19;;;;;;;;;;;;;;;;;;5072997;28;845;-71
2023/10/08 10:40:00;;;;;;;;;;;;;;;;;;5072552;28;821;-70
2023/10/08 10:42:28;;;;;;;;;;;;;;;;;;5073665;28;900;-70
2023/10/08 10:44:55;;;;;;;;;;;;;;;;;;5072704;28;904;-69
2023/10/08 10:52:51;;;;;;;;;;;;;;;;;;5072679;28;1234;-70
2023/10/08 10:57:43;;;;;;;;;;;;;;;;;;5072544;28;963;-70
2023/10/08 11:00:47;;;;;;;;;;;;;;;;;;5071917;28;888;-70
2023/10/08 11:02:59;;;;;;;;;;;;;;;;;;5072564;28;1159;-70
2023/10/08 11:05:28;;;;;;;;;;;;;;;;;;5071480;28;836;-70
2023/10/08 11:08:00;;;;;;;;;;;;;;;;;;5070425;28;1227;-70
2023/10/08 11:10:27;;;;;;;;;;;;;;;;;;5072633;28;1921;-69
2023/10/08 11:12:54;;;;;;;;;;;;;;;;;;5072837;28;856;-70
2023/10/08 11:15:19;;;;;;;;;;;;;;;;;;5071495;28;1242;-69
2023/10/08 11:17:47;;;;;;;;;;;;;;;;;;5071291;28;905;-70
2023/10/08 11:20:24;;;;;;;;;;;;;;;;;;5072554;28;845;-69
2023/10/08 11:22:51;;;;;;;;;;;;;;;;;;5072317;28;844;-70
2023/10/08 11:25:24;;;;;;;;;;;;;;;;;;5072380;28;965;-69
2023/10/08 11:27:52;;;;;;;;;;;;;;;;;;5070671;28;1496;-70
2023/10/08 11:30:17;;;;;;;;;;;;;;;;;;5072801;28;1906;-70
2023/10/08 11:32:48;;;;;;;;;;;;;;;;;;5071856;28;888;-70
2023/10/08 11:35:18;;;;;;;;;;;;;;;;;;5072601;28;892;-70
2023/10/08 11:37:50;;;;;;;;;;;;;;;;;;5072873;28;868;-69
2023/10/08 11:40:28;;;;;;;;;;;;;;;;;;5072915;28;856;-70
2023/10/08 11:42:56;;;;;;;;;;;;;;;;;;5073247;28;864;-69
2023/10/08 11:45:25;;;;;;;;;;;;;;;;;;5073294;28;841;-70
2023/10/08 11:48:02;;;;;;;;;;;;;;;;;;5071459;28;1167;-69
2023/10/08 11:50:30;;;;;;;;;;;;;;;;;;5072817;28;1906;-69
2023/10/08 11:53:05;;;;;;;;;;;;;;;;;;5071770;28;893;-69
2023/10/08 11:55:35;;;;;;;;;;;;;;;;;;5071892;28;840;-69
2023/10/08 11:58:01;;;;;;;;;;;;;;;;;;5071608;28;916;-69
2023/10/08 12:00:26;;;;;;;;;;;;;;;;;;5070964;28;778;-70
2023/10/08 12:02:55;;;;;;;;;;;;;;;;;;5071565;28;920;-69
2023/10/08 12:05:24;;;;;;;;;;;;;;;;;;5071806;28;867;-69
2023/10/08 12:07:52;;;;;;;;;;;;;;;;;;5071336;28;1572;-69
2023/10/08 12:10:24;;;;;;;;;;;;;;;;;;5071425;28;1882;-69
2023/10/08 12:12:52;;;;;;;;;;;;;;;;;;5071500;28;842;-70
2023/10/08 12:15:19;;;;;;;;;;;;;;;;;;5071463;28;861;-69
2023/10/08 12:18:08;;;;;;;;;;;;;;;;;;5071242;28;888;-69
2023/10/08 12:20:39;;;;;;;;;;;;;;;;;;5072045;28;1725;-69
2023/10/08 12:23:05;;;;;;;;;;;;;;;;;;5071653;28;888;-69
2023/10/08 12:25:32;;;;;;;;;;;;;;;;;;5071749;28;889;-69
2023/10/08 12:27:58;;;;;;;;;;;;;;;;;;5070139;28;1317;-69
2023/10/08 12:30:30;;;;;;;;;;;;;;;;;;5071482;28;1898;-70
2023/10/08 12:32:57;;;;;;;;;;;;;;;;;;5071348;28;928;-69
2023/10/08 12:35:24;;;;;;;;;;;;;;;;;;5070429;28;1547;-69
2023/10/08 12:37:49;;;;;;;;;;;;;;;;;;5070220;28;1325;-69
2023/10/08 12:40:23;;;;;;;;;;;;;;;;;;5071527;28;924;-70
2023/10/08 12:42:52;;;;;;;;;;;;;;;;;;5071773;28;864;-70
2023/10/08 12:45:20;;;;;;;;;;;;;;;;;;5070754;28;1249;-70
2023/10/08 12:47:52;;;;;;;;;;;;;;;;;;5070471;28;832;-70
2023/10/08 12:50:23;;;;;;;;;;;;;;;;;;5069747;28;1981;-70
2023/10/08 12:52:52;;;;;;;;;;;;;;;;;;5071596;28;939;-70
2023/10/08 12:55:23;;;;;;;;;;;;;;;;;;5071377;28;845;-70
2023/10/08 12:57:55;;;;;;;;;;;;;;;;;;5071122;28;861;-70
2023/10/08 13:00:23;;;;;;;;;;;;;;;;;;5071494;28;647;-70
2023/10/08 13:02:53;;;;;;;;;;;;;;;;;;5070754;28;842;-70
2023/10/08 13:05:21;;;;;;;;;;;;;;;;;;5071100;28;918;-70
2023/10/08 13:07:46;;;;;;;;;;;;;;;;;;5069534;28;1787;-70
2023/10/08 13:10:14;;;;;;;;;;;;;;;;;;5071106;28;1914;-70
2023/10/08 13:12:41;;;;;;;;;;;;;;;;;;5071216;28;922;-70
2023/10/08 13:15:07;;;;;;;;;;;;;;;;;;5067583;28;1191;-70
2023/10/08 13:17:32;;;;;;;;;;;;;;;;;;5050078;28;1072;-70
2023/10/08 13:19:57;;;;;;;;;;;;;;;;;;5050148;28;1176;-70
2023/10/08 13:22:24;;;;;;;;;;;;;;;;;;5053228;28;845;-69
2023/10/08 13:24:49;;;;;;;;;;;;;;;;;;5055874;28;888;-69
2023/10/08 13:27:16;;;;;;;;;;;;;;;;;;5055835;28;904;-69
2023/10/08 13:29:43;;;;;;;;;;;;;;;;;;5055175;28;1902;-70
2023/10/08 13:32:17;;;;;;;;;;;;;;;;;;5055729;28;848;-69
2023/10/08 13:34:42;;;;;;;;;;;;;;;;;;5055155;28;844;-69
2023/10/08 13:37:07;;;;;;;;;;;;;;;;;;5055823;28;935;-69
2023/10/08 13:39:35;;;;;;;;;;;;;;;;;;5055191;28;856;-69
2023/10/08 13:42:01;;;;;;;;;;;;;;;;;;5053064;28;935;-70
2023/10/08 13:44:28;;;;;;;;;;;;;;;;;;5055174;28;802;-69
2023/10/08 13:46:57;;;;;;;;;;;;;;;;;;5036769;28;877;-69
2023/10/08 13:49:22;;;;;;;;;;;;;;;;;;5054586;28;1906;-69
2023/10/08 13:51:55;;;;;;;;;;;;;;;;;;5054149;28;963;-70
2023/10/08 13:54:21;;;;;;;;;;;;;;;;;;5054562;28;872;-70
2023/10/08 13:56:48;;;;;;;;;;;;;;;;;;5054328;28;905;-70
2023/10/08 13:59:13;;;;;;;;;;;;;;;;;;5053571;28;885;-69
2023/10/08 14:01:43;;;;;;;;;;;;;;;;;;5054483;28;828;-69
2023/10/08 14:04:09;;;;;;;;;;;;;;;;;;5054666;28;840;-69
2023/10/08 14:06:41;;;;;;;;;;;;;;;;;;5053714;28;884;-69
2023/10/08 14:09:09;;;;;;;;;;;;;;;;;;5053072;28;1906;-69
2023/10/08 14:11:34;;;;;;;;;;;;;;;;;;5053767;28;853;-69
2023/10/08 14:14:07;;;;;;;;;;;;;;;;;;5054603;28;849;-70
2023/10/08 14:16:35;;;;;;;;;;;;;;;;;;5054038;28;1195;-68
2023/10/08 14:19:04;;;;;;;;;;;;;;;;;;5054994;28;872;-73
2023/10/08 14:21:38;;;;;;;;;;;;;;;;;;5055291;28;869;-73
2023/10/08 14:24:04;;;;;;;;;;;;;;;;;;5055622;28;920;-71
2023/10/08 14:26:36;;;;;;;;;;;;;;;;;;5054999;28;932;-75
2023/10/08 14:29:07;;;;;;;;;;;;;;;;;;5054675;28;1902;-68
2023/10/08 14:31:33;;;;;;;;;;;;;;;;;;5054869;28;916;-74
2023/10/08 14:45:11;;;;;;;;;;;;;;;;;;5054882;28;686;-69
2023/10/08 14:47:39;;;;;;;;;;;;;;;;;;5054826;28;888;-69
2023/10/08 14:50:05;;;;;;;;;;;;;;;;;;5053914;28;1910;-69
2023/10/08 14:52:31;;;;;;;;;;;;;;;;;;5054192;28;848;-70
2023/10/08 14:54:56;;;;;;;;;;;;;;;;;;5054549;28;908;-73
2023/10/08 14:57:22;;;;;;;;;;;;;;;;;;5053311;28;916;-71
2023/10/08 14:59:48;;;;;;;;;;;;;;;;;;5053936;28;841;-70
2023/10/08 15:02:13;;;;;;;;;;;;;;;;;;5054763;28;888;-69
2023/10/08 15:04:39;;;;;;;;;;;;;;;;;;5053038;28;1172;-71
2023/10/08 15:07:08;;;;;;;;;;;;;;;;;;5057015;28;1124;-70
2023/10/08 15:09:33;;;;;;;;;;;;;;;;;;5065176;28;1905;-70
2023/10/08 15:11:59;;;;;;;;;;;;;;;;;;5051614;28;1287;-71
2023/10/08 15:14:24;;;;;;;;;;;;;;;;;;5055101;28;1289;-72
2023/10/08 15:16:52;;;;;;;;;;;;;;;;;;5051603;28;1235;-72
2023/10/08 15:19:18;;;;;;;;;;;;;;;;;;5055193;28;1152;-70
2023/10/08 15:21:44;;;;;;;;;;;;;;;;;;5053795;28;907;-70
2023/10/08 15:24:11;;;;;;;;;;;;;;;;;;5051893;28;1533;-69
2023/10/08 15:26:39;;;;;;;;;;;;;;;;;;5053653;28;876;-72
2023/10/08 15:29:04;;;;;;;;;;;;;;;;;;5052926;28;1890;-71
2023/10/08 15:31:29;;;;;;;;;;;;;;;;;;5054538;28;907;-71
2023/10/08 15:33:55;;;;;;;;;;;;;;;;;;5052918;28;1262;-70
2023/10/08 15:36:20;;;;;;;;;;;;;;;;;;5054190;28;1003;-71
2023/10/08 15:38:45;;;;;;;;;;;;;;;;;;5053586;28;876;-70
2023/10/08 15:41:13;;;;;;;;;;;;;;;;;;5054284;28;886;-71
2023/10/08 15:43:39;;;;;;;;;;;;;;;;;;5054257;28;896;-72
2023/10/08 15:46:05;;;;;;;;;;;;;;;;;;5053470;28;868;-71
2023/10/08 15:48:30;;;;;;;;;;;;;;;;;;5054068;28;829;-71
2023/10/08 15:50:56;;;;;;;;;;;;;;;;;;5053322;28;1906;-72
2023/10/08 15:53:21;;;;;;;;;;;;;;;;;;5053199;28;955;-71
2023/10/08 15:55:47;;;;;;;;;;;;;;;;;;5051385;28;852;-70
2023/10/08 15:58:12;;;;;;;;;;;;;;;;;;5052585;28;916;-71
2023/10/08 16:00:37;;;;;;;;;;;;;;;;;;5052581;28;979;-70
2023/10/08 16:03:04;;;;;;;;;;;;;;;;;;5052398;28;920;-70
2023/10/08 16:05:30;;;;;;;;;;;;;;;;;;5052760;28;1013;-70
2023/10/08 16:07:58;;;;;;;;;;;;;;;;;;5052557;28;987;-71
2023/10/08 16:10:24;;;;;;;;;;;;;;;;;;5052857;28;1969;-71
2023/10/08 16:12:49;;;;;;;;;;;;;;;;;;5051937;28;981;-71
2023/10/08 16:15:15;;;;;;;;;;;;;;;;;;5051089;28;1298;-71
2023/10/08 16:17:43;;;;;;;;;;;;;;;;;;5051079;28;861;-71
2023/10/08 16:20:15;;;;;;;;;;;;;;;;;;5051949;28;900;-71
2023/10/08 16:22:47;;;;;;;;;;;;;;;;;;5050969;28;853;-71
2023/10/08 16:25:19;;;;;;;;;;;;;;;;;;5051478;28;908;-71
2023/10/08 16:27:49;;;;;;;;;;;;;;;;;;5050479;28;962;-71
2023/10/08 16:30:19;;;;;;;;;;;;;;;;;;5050603;28;1890;-71
2023/10/08 16:32:45;;;;;;;;;;;;;;;;;;5051272;28;1023;-71
2023/10/08 16:35:11;;;;;;;;;;;;;;;;;;5051200;28;869;-70
2023/10/08 16:37:37;;;;;;;;;;;;;;;;;;5033100;28;1238;-70
2023/10/08 16:40:04;;;;;;;;;;;;;;;;;;5051124;28;876;-71
2023/10/08 16:42:30;;;;;;;;;;;;;;;;;;5049798;28;1338;-71
2023/10/08 16:44:56;;;;;;;;;;;;;;;;;;5051381;28;932;-70
2023/10/08 16:47:21;;;;;;;;;;;;;;;;;;5051436;28;893;-70
2023/10/08 16:49:47;;;;;;;;;;;;;;;;;;5050728;28;1886;-71
2023/10/08 16:52:12;;;;;;;;;;;;;;;;;;5051431;28;903;-71
2023/10/08 16:54:37;;;;;;;;;;;;;;;;;;5050901;28;935;-71
2023/10/08 16:57:04;;;;;;;;;;;;;;;;;;5050735;28;1271;-71
2023/10/08 16:59:30;;;;;;;;;;;;;;;;;;5055392;28;832;-70
2023/10/08 17:01:56;;;;;;;;;;;;;;;;;;5054585;28;836;-72
2023/10/08 17:04:21;;;;;;;;;;;;;;;;;;5055248;28;967;-71
2023/10/08 17:06:47;;;;;;;;;;;;;;;;;;5054855;28;1064;-71
2023/10/08 17:09:16;;;;;;;;;;;;;;;;;;5054763;28;1906;-71
2023/10/08 17:11:49;;;;;;;;;;;;;;;;;;5056222;28;939;-71
2023/10/08 17:14:14;;;;;;;;;;;;;;;;;;5056290;28;900;-71
2023/10/08 17:16:42;;;;;;;;;;;;;;;;;;5056137;28;1038;-71
2023/10/08 17:19:08;;;;;;;;;;;;;;;;;;5054694;28;876;-71
2023/10/08 17:21:33;;;;;;;;;;;;;;;;;;5055737;28;821;-70
2023/10/08 17:23:58;;;;;;;;;;;;;;;;;;5054053;28;821;-71
2023/10/08 17:26:24;;;;;;;;;;;;;;;;;;5054702;28;983;-70
2023/10/08 17:28:49;;;;;;;;;;;;;;;;;;5054755;28;1898;-70
2023/10/08 17:31:14;;;;;;;;;;;;;;;;;;5055256;28;841;-71
2023/10/08 17:33:41;;;;;;;;;;;;;;;;;;5055003;28;952;-70
2023/10/08 17:36:07;;;;;;;;;;;;;;;;;;5053677;28;853;-71
2023/10/08 17:38:33;;;;;;;;;;;;;;;;;;5055475;28;861;-71
2023/10/08 17:40:58;;;;;;;;;;;;;;;;;;5054496;28;987;-71
2023/10/08 17:43:24;;;;;;;;;;;;;;;;;;5055309;28;916;-71
2023/10/08 17:45:52;;;;;;;;;;;;;;;;;;5054823;28;884;-70
2023/10/08 17:48:18;;;;;;;;;;;;;;;;;;5055736;28;920;-70
2023/10/08 17:50:44;;;;;;;;;;;;;;;;;;5055428;28;1949;-70
2023/10/08 17:53:10;;;;;;;;;;;;;;;;;;5054741;28;923;-70
2023/10/08 17:55:35;;;;;;;;;;;;;;;;;;5054025;28;916;-70
2023/10/08 17:58:02;;;;;;;;;;;;;;;;;;5054879;28;857;-70
2023/10/08 18:00:30;;;;;;;;;;;;;;;;;;5053675;28;1204;-70
2023/10/08 18:02:55;;;;;;;;;;;;;;;;;;5053751;28;849;-70
2023/10/08 18:05:26;;;;;;;;;;;;;;;;;;5054205;28;874;-70
2023/10/08 18:07:52;;;;;;;;;;;;;;;;;;5053038;28;959;-71
2023/10/08 18:10:20;;;;;;;;;;;;;;;;;;5054203;28;1910;-71
2023/10/08 18:12:45;;;;;;;;;;;;;;;;;;5053736;28;837;-71
2023/10/08 18:15:15;;;;;;;;;;;;;;;;;;5053543;28;829;-71
2023/10/08 18:17:41;;;;;;;;;;;;;;;;;;5053878;28;893;-71
2023/10/08 18:20:11;;;;;;;;;;;;;;;;;;5053502;28;865;-69
2023/10/08 18:22:36;;;;;;;;;;;;;;;;;;5053930;28;850;-70
2023/10/08 18:25:02;;;;;;;;;;;;;;;;;;5053790;28;932;-69